Time;durP1;ratioP1;P1;durP2;ratioP2;P2;SDS_P1;SDS_P2;PMS_P1;PMS_P2;Temp;Humidity;BMP_temperature;BMP_pressure;BME280_temperature;BME280_humidity;BME280_pressure;Samples;Min_cycle;Max_cycle;Signal;HPM_P1;HPM_P2
2023/06/22 00:01:02;;;;;;;5.60;4.68;;;15.90;99.90;;;;;;5050511;28;20432;-72
2023/06/22 00:03:27;;;;;;;9.85;4.53;;;15.90;99.90;;;;;;5050972;28;20382;-72
2023/06/22 00:05:53;;;;;;;8.73;4.80;;;15.90;99.90;;;;;;5051093;28;20082;-72
2023/06/22 00:08:20;;;;;;;10.02;5.13;;;16.00;99.90;;;;;;5050485;28;20071;-71
2023/06/22 00:10:46;;;;;;;7.15;4.40;;;16.10;99.90;;;;;;5050765;28;20029;-72
2023/06/22 00:13:13;;;;;;;6.10;4.30;;;16.00;99.90;;;;;;5050385;28;20068;-72
2023/06/22 00:15:41;;;;;;;6.25;4.45;;;15.90;99.90;;;;;;5050836;28;20124;-72
2023/06/22 00:18:08;;;;;;;4.78;4.28;;;15.80;99.90;;;;;;5050203;28;20364;-72
2023/06/22 00:20:36;;;;;;;6.45;4.65;;;15.70;99.90;;;;;;5050710;28;20053;-72
2023/06/22 00:23:09;;;;;;;4.03;3.60;;;15.70;99.90;;;;;;5050083;28;20044;-74
2023/06/22 00:25:36;;;;;;;7.38;4.22;;;15.50;99.90;;;;;;5050644;28;20032;-72
2023/06/22 00:28:03;;;;;;;5.55;4.30;;;15.50;99.90;;;;;;5049754;28;20466;-73
2023/06/22 00:30:30;;;;;;;5.70;3.60;;;15.50;99.90;;;;;;5050443;28;20052;-72
2023/06/22 00:32:56;;;;;;;4.45;4.03;;;15.40;99.90;;;;;;5050300;28;20037;-72
2023/06/22 00:35:22;;;;;;;8.55;4.18;;;15.30;99.90;;;;;;5049901;28;20028;-72
2023/06/22 00:37:47;;;;;;;4.68;3.47;;;15.30;99.90;;;;;;5050112;28;20386;-72
2023/06/22 00:40:14;;;;;;;4.53;3.67;;;15.30;99.90;;;;;;5049964;28;20025;-72
2023/06/22 00:42:40;;;;;;;4.28;3.50;;;15.30;99.90;;;;;;5050658;28;20037;-72
2023/06/22 00:45:07;;;;;;;4.20;3.80;;;15.30;99.90;;;;;;5048824;28;20025;-71
2023/06/22 00:47:37;;;;;;;9.45;4.20;;;15.20;99.90;;;;;;5050562;28;20100;-72
2023/06/22 00:50:06;;;;;;;6.18;4.20;;;15.20;99.90;;;;;;5049521;28;20478;-72
2023/06/22 00:52:35;;;;;;;3.95;3.45;;;15.20;99.90;;;;;;5050475;28;20383;-72
2023/06/22 00:55:02;;;;;;;7.30;3.85;;;15.10;99.90;;;;;;5050410;28;20029;-72
2023/06/22 00:57:28;;;;;;;5.15;3.60;;;15.00;99.90;;;;;;5053883;28;20032;-72
2023/06/22 00:59:54;;;;;;;5.75;3.67;;;14.90;99.90;;;;;;5054294;28;20044;-72
2023/06/22 01:02:20;;;;;;;6.97;3.58;;;15.00;99.90;;;;;;5052384;28;20029;-72
2023/06/22 01:04:46;;;;;;;4.82;3.63;;;14.90;99.90;;;;;;5052912;28;20404;-72
2023/06/22 01:07:30;;;;;;;5.10;4.30;;;14.80;99.90;;;;;;5054289;28;20028;-72
2023/06/22 01:10:07;;;;;;;6.40;4.07;;;14.70;99.90;;;;;;5054118;28;20025;-72
2023/06/22 01:12:38;;;;;;;7.60;3.75;;;14.50;99.90;;;;;;5054066;28;20032;-72
2023/06/22 01:15:30;;;;;;;5.72;3.70;;;14.40;99.90;;;;;;5053823;28;20136;-73
2023/06/22 01:17:58;;;;;;;5.55;3.55;;;14.30;99.90;;;;;;5053793;28;20025;-72
2023/06/22 01:20:27;;;;;;;5.65;3.70;;;14.20;99.90;;;;;;5051647;28;20021;-72
2023/06/22 01:23:22;;;;;;;6.30;3.55;;;14.30;99.90;;;;;;5053613;28;20028;-71
2023/06/22 01:25:59;;;;;;;6.25;3.65;;;14.30;99.90;;;;;;5053334;28;20100;-72
2023/06/22 01:28:43;;;;;;;4.60;3.92;;;14.20;99.90;;;;;;5052706;28;20049;-72
2023/06/22 01:31:13;;;;;;;9.80;4.00;;;14.10;99.90;;;;;;5052863;28;20104;-72
2023/06/22 01:33:42;;;;;;;5.65;4.25;;;14.10;99.90;;;;;;5053608;28;20094;-71
2023/06/22 01:36:09;;;;;;;7.63;3.70;;;14.20;99.90;;;;;;5051544;28;20036;-72
2023/06/22 01:38:36;;;;;;;6.38;3.90;;;14.20;99.90;;;;;;5051967;28;20021;-70
2023/06/22 01:41:03;;;;;;;5.78;3.90;;;14.20;99.90;;;;;;5053929;28;20025;-71
2023/06/22 01:43:30;;;;;;;8.88;3.92;;;14.30;99.90;;;;;;5052612;28;20029;-71
2023/06/22 01:45:57;;;;;;;9.77;3.90;;;14.30;99.90;;;;;;5053066;28;20056;-71
2023/06/22 01:48:23;;;;;;;5.00;4.32;;;14.20;99.90;;;;;;5052138;28;20025;-71
2023/06/22 01:50:49;;;;;;;6.32;4.22;;;14.20;99.90;;;;;;5052875;28;20021;-71
2023/06/22 01:53:15;;;;;;;4.78;3.97;;;14.10;99.90;;;;;;5052331;28;20025;-72
2023/06/22 01:55:41;;;;;;;10.00;3.90;;;14.10;99.90;;;;;;5052783;28;20031;-71
2023/06/22 01:58:07;;;;;;;4.70;3.70;;;14.10;99.90;;;;;;5052356;28;20031;-73
2023/06/22 02:00:37;;;;;;;5.40;3.63;;;14.20;99.90;;;;;;5052329;28;20031;-71
2023/06/22 02:03:19;;;;;;;5.28;4.00;;;14.20;99.90;;;;;;5052781;28;20419;-71
2023/06/22 02:05:56;;;;;;;10.32;4.22;;;14.00;99.90;;;;;;5053000;28;20378;-73
2023/06/22 02:08:30;;;;;;;7.45;4.25;;;13.90;99.90;;;;;;5051578;28;20080;-72
2023/06/22 02:10:57;;;;;;;6.47;3.60;;;13.90;99.90;;;;;;5053098;28;20033;-73
2023/06/22 02:13:25;;;;;;;5.20;3.95;;;13.80;99.90;;;;;;5055389;28;20461;-72
2023/06/22 02:15:51;;;;;;;8.23;4.10;;;13.70;99.90;;;;;;5054391;28;20071;-73
2023/06/22 02:18:17;;;;;;;4.85;3.78;;;13.60;99.90;;;;;;5050639;28;20029;-74
2023/06/22 02:20:43;;;;;;;5.75;4.18;;;13.60;99.90;;;;;;5052181;28;20112;-70
2023/06/22 02:23:09;;;;;;;9.52;4.00;;;13.70;99.90;;;;;;5051788;28;20029;-72
2023/06/22 02:25:35;;;;;;;5.32;3.92;;;13.70;99.90;;;;;;5052421;28;20033;-71
2023/06/22 02:28:02;;;;;;;5.75;3.60;;;13.70;99.90;;;;;;5052078;28;20057;-71
2023/06/22 02:30:28;;;;;;;4.53;3.55;;;13.80;99.90;;;;;;5051840;28;20641;-71
2023/06/22 02:32:58;;;;;;;4.43;3.65;;;13.90;99.90;;;;;;5052257;28;20130;-71
2023/06/22 02:35:31;;;;;;;5.55;4.18;;;14.00;99.90;;;;;;5051723;28;20466;-71
2023/06/22 02:38:01;;;;;;;7.38;4.22;;;14.10;99.90;;;;;;5052182;28;20047;-71
2023/06/22 02:40:29;;;;;;;6.07;4.10;;;14.10;99.90;;;;;;5051490;28;20021;-71
2023/06/22 02:42:55;;;;;;;5.82;4.07;;;14.00;99.90;;;;;;5052175;28;20033;-71
2023/06/22 02:45:21;;;;;;;5.93;4.20;;;13.90;99.90;;;;;;5051050;28;20029;-71
2023/06/22 02:47:47;;;;;;;8.32;4.38;;;13.90;99.90;;;;;;5051762;28;20021;-71
2023/06/22 02:50:13;;;;;;;4.93;3.97;;;13.80;99.90;;;;;;5050963;28;20116;-72
2023/06/22 02:52:39;;;;;;;10.65;4.10;;;13.60;99.90;;;;;;5051808;28;20506;-71
2023/06/22 02:55:07;;;;;;;5.45;3.58;;;13.70;99.90;;;;;;5051939;28;20055;-71
2023/06/22 02:57:33;;;;;;;5.40;4.13;;;13.60;99.90;;;;;;5051266;28;20025;-71
2023/06/22 02:59:59;;;;;;;4.20;3.80;;;13.50;99.90;;;;;;5051375;28;20382;-71
2023/06/22 03:02:26;;;;;;;6.50;4.20;;;13.50;99.90;;;;;;5050971;28;20028;-71
2023/06/22 03:04:53;;;;;;;4.85;3.85;;;13.50;99.90;;;;;;5051669;28;20493;-71
2023/06/22 03:07:22;;;;;;;7.97;4.10;;;13.50;99.90;;;;;;5051078;28;20116;-72
2023/06/22 03:09:48;;;;;;;6.15;3.88;;;13.50;99.90;;;;;;5051543;28;20071;-71
2023/06/22 03:12:13;;;;;;;5.38;4.05;;;13.40;99.90;;;;;;5050783;28;20121;-71
2023/06/22 03:14:39;;;;;;;5.25;3.80;;;13.30;99.90;;;;;;5051419;28;20055;-71
2023/06/22 03:17:06;;;;;;;9.48;4.35;;;13.30;99.90;;;;;;5051594;28;20138;-71
2023/06/22 03:19:31;;;;;;;5.30;3.65;;;13.30;99.90;;;;;;5050069;28;20029;-71
2023/06/22 03:21:59;;;;;;;8.15;4.43;;;13.20;99.90;;;;;;5051001;28;20031;-71
2023/06/22 03:24:25;;;;;;;4.40;3.90;;;13.20;99.90;;;;;;5050634;28;20429;-71
2023/06/22 03:26:51;;;;;;;6.22;4.03;;;13.10;99.90;;;;;;5051241;28;20024;-71
2023/06/22 03:29:16;;;;;;;4.20;3.80;;;13.20;99.90;;;;;;5050712;28;20059;-72
2023/06/22 03:31:42;;;;;;;4.45;4.00;;;13.30;99.90;;;;;;5051185;28;20028;-71
2023/06/22 03:34:08;;;;;;;6.22;3.90;;;13.30;99.90;;;;;;5049571;28;20041;-71
2023/06/22 03:36:33;;;;;;;5.03;3.97;;;13.20;99.90;;;;;;5050395;28;20153;-71
2023/06/22 03:38:59;;;;;;;5.43;3.75;;;13.20;99.90;;;;;;5051051;28;20040;-71
2023/06/22 03:41:25;;;;;;;8.60;4.13;;;13.20;99.90;;;;;;5050039;28;20481;-71
2023/06/22 03:43:51;;;;;;;4.38;3.78;;;13.10;99.90;;;;;;5050637;28;20075;-72
2023/06/22 03:46:16;;;;;;;5.07;4.10;;;13.00;99.90;;;;;;5049035;28;20426;-72
2023/06/22 03:48:42;;;;;;;7.03;6.07;;;13.00;99.90;;;;;;5050588;28;20024;-71
2023/06/22 03:51:08;;;;;;;5.25;4.72;;;13.10;99.90;;;;;;5049217;28;20037;-71
2023/06/22 03:53:34;;;;;;;4.60;3.97;;;13.00;99.90;;;;;;5049860;28;20048;-71
2023/06/22 03:55:59;;;;;;;7.32;4.55;;;13.00;99.90;;;;;;5050644;28;20037;-71
2023/06/22 03:58:25;;;;;;;7.35;4.50;;;13.10;99.90;;;;;;5050067;28;20096;-71
2023/06/22 04:00:52;;;;;;;8.35;3.92;;;13.10;99.90;;;;;;5050133;28;20124;-71
2023/06/22 04:03:18;;;;;;;5.88;4.18;;;13.10;99.90;;;;;;5050289;28;20129;-72
2023/06/22 04:05:45;;;;;;;6.65;4.38;;;13.10;99.90;;;;;;5050512;28;20112;-71
2023/06/22 04:08:12;;;;;;;8.68;4.75;;;13.10;99.90;;;;;;5050254;28;20029;-71
2023/06/22 04:10:38;;;;;;;5.45;4.20;;;13.00;99.90;;;;;;5050027;28;20454;-71
2023/06/22 04:13:04;;;;;;;5.82;4.40;;;13.00;99.90;;;;;;5050087;28;20033;-71
2023/06/22 04:15:29;;;;;;;4.05;3.63;;;13.00;99.90;;;;;;5050310;28;20115;-71
2023/06/22 04:17:56;;;;;;;4.70;4.10;;;13.00;99.90;;;;;;5050723;28;20021;-71
2023/06/22 04:20:25;;;;;;;5.90;4.43;;;13.00;99.90;;;;;;5050084;28;20035;-72
2023/06/22 04:22:54;;;;;;;5.57;4.20;;;13.00;99.90;;;;;;5050902;28;20033;-71
2023/06/22 04:25:20;;;;;;;5.30;4.35;;;13.00;99.90;;;;;;5050071;28;20099;-72
2023/06/22 04:27:46;;;;;;;6.85;4.30;;;13.00;99.90;;;;;;5050271;28;20037;-71
2023/06/22 04:30:15;;;;;;;5.45;4.30;;;13.00;99.90;;;;;;5050098;28;20029;-71
2023/06/22 04:32:40;;;;;;;5.43;4.15;;;12.90;99.90;;;;;;5049941;28;20129;-71
2023/06/22 04:35:07;;;;;;;5.28;4.10;;;12.90;99.90;;;;;;5050607;28;20113;-71
2023/06/22 04:37:33;;;;;;;5.38;4.03;;;12.90;99.90;;;;;;5049774;28;20040;-71
2023/06/22 04:39:59;;;;;;;4.68;4.03;;;12.90;99.90;;;;;;5050468;28;20060;-71
2023/06/22 04:42:28;;;;;;;4.63;4.00;;;13.00;99.90;;;;;;5049658;28;20065;-71
2023/06/22 04:44:53;;;;;;;6.93;4.28;;;13.00;99.90;;;;;;5048719;28;20036;-71
2023/06/22 04:47:19;;;;;;;5.72;4.15;;;13.10;99.90;;;;;;5049802;28;20457;-72
2023/06/22 04:49:45;;;;;;;6.20;4.07;;;13.20;99.90;;;;;;5048902;28;20014;-71
2023/06/22 04:52:13;;;;;;;5.13;4.30;;;13.20;99.90;;;;;;5049950;28;20386;-71
2023/06/22 04:54:47;;;;;;;5.03;4.40;;;13.10;99.90;;;;;;5049897;28;20021;-71
2023/06/22 04:57:13;;;;;;;6.13;4.60;;;13.30;99.90;;;;;;5050422;28;20497;-71
2023/06/22 04:59:41;;;;;;;4.65;4.20;;;13.40;99.90;;;;;;5049838;28;20084;-71
2023/06/22 05:02:08;;;;;;;5.05;4.50;;;13.50;99.90;;;;;;5048928;28;20037;-71
2023/06/22 05:04:35;;;;;;;7.13;4.68;;;13.60;99.90;;;;;;5049683;28;20033;-71
2023/06/22 05:07:02;;;;;;;7.18;4.05;;;13.70;99.90;;;;;;5050003;28;20385;-71
2023/06/22 05:09:28;;;;;;;5.93;4.30;;;13.80;99.90;;;;;;5049149;28;20029;-72
2023/06/22 05:11:56;;;;;;;6.18;4.30;;;13.90;99.90;;;;;;5050298;28;20139;-71
2023/06/22 05:14:22;;;;;;;8.70;4.60;;;14.00;99.90;;;;;;5049532;28;20033;-72
2023/06/22 05:16:49;;;;;;;6.85;4.22;;;14.10;99.90;;;;;;5050326;28;20036;-71
2023/06/22 05:19:14;;;;;;;6.18;4.55;;;14.30;99.90;;;;;;5048771;28;20021;-71
2023/06/22 05:21:40;;;;;;;7.03;4.03;;;14.40;99.90;;;;;;5049598;28;20119;-71
2023/06/22 05:24:06;;;;;;;6.85;4.65;;;14.50;99.90;;;;;;5050051;28;20382;-72
2023/06/22 05:26:33;;;;;;;6.75;4.55;;;14.60;99.90;;;;;;5049292;28;20029;-71
2023/06/22 05:29:03;;;;;;;5.32;4.18;;;14.60;99.90;;;;;;5049751;28;20088;-71
2023/06/22 05:31:29;;;;;;;7.43;4.90;;;14.70;99.90;;;;;;5048916;28;20450;-71
2023/06/22 05:33:55;;;;;;;8.85;4.97;;;14.80;99.90;;;;;;5049621;28;20481;-71
2023/06/22 05:36:24;;;;;;;10.05;5.05;;;14.90;99.90;;;;;;5049424;28;20027;-73
2023/06/22 05:38:51;;;;;;;5.93;4.72;;;15.00;99.90;;;;;;5049554;28;20443;-71
2023/06/22 05:41:17;;;;;;;8.82;5.20;;;15.20;99.90;;;;;;5050217;28;20040;-71
2023/06/22 05:43:43;;;;;;;5.45;4.30;;;15.30;99.90;;;;;;5050815;28;20033;-72
2023/06/22 05:46:08;;;;;;;8.77;3.80;;;15.40;99.90;;;;;;5053375;28;20040;-71
2023/06/22 05:48:34;;;;;;;7.78;4.30;;;15.50;99.90;;;;;;5052468;28;20111;-71
2023/06/22 05:51:00;;;;;;;8.45;4.60;;;15.50;99.90;;;;;;5052475;28;20502;-71
2023/06/22 05:53:26;;;;;;;7.35;4.47;;;15.70;99.90;;;;;;5052485;28;20048;-71
2023/06/22 05:55:51;;;;;;;6.28;4.28;;;15.80;99.90;;;;;;5052236;28;20158;-72
2023/06/22 05:58:17;;;;;;;6.45;4.82;;;15.90;99.90;;;;;;5052967;28;20311;-72
2023/06/22 06:00:43;;;;;;;5.40;4.80;;;16.00;99.90;;;;;;5051992;28;20396;-71
2023/06/22 06:03:10;;;;;;;6.75;4.30;;;16.10;99.90;;;;;;5052745;28;20089;-72
2023/06/22 06:05:36;;;;;;;8.05;5.88;;;16.40;99.90;;;;;;5051988;28;20021;-71
2023/06/22 06:08:07;;;;;;;11.27;6.57;;;16.60;99.90;;;;;;5052429;28;20028;-72
2023/06/22 06:10:33;;;;;;;5.88;5.25;;;16.70;99.90;;;;;;5051960;28;20035;-70
2023/06/22 06:13:02;;;;;;;7.75;5.38;;;16.80;99.90;;;;;;5052617;28;20079;-72
2023/06/22 06:15:28;;;;;;;10.82;5.93;;;16.80;99.90;;;;;;5052202;28;20032;-72
2023/06/22 06:17:54;;;;;;;8.60;5.43;;;16.80;99.90;;;;;;5052110;28;20369;-72
2023/06/22 06:20:24;;;;;;;11.13;6.60;;;16.90;99.90;;;;;;5052159;28;20029;-72
2023/06/22 06:22:50;;;;;;;9.15;6.28;;;17.00;99.90;;;;;;5052156;28;20477;-72
2023/06/22 06:25:17;;;;;;;8.18;5.90;;;17.10;99.90;;;;;;5052004;28;20427;-72
2023/06/22 06:27:43;;;;;;;7.10;5.30;;;17.30;99.90;;;;;;5051478;28;20139;-72
2023/06/22 06:30:13;;;;;;;7.57;5.40;;;17.50;99.90;;;;;;5051906;28;20053;-72
2023/06/22 06:32:41;;;;;;;5.80;4.88;;;17.60;99.90;;;;;;5050057;28;20108;-72
2023/06/22 06:35:08;;;;;;;10.80;6.22;;;17.80;99.90;;;;;;5051826;28;20471;-72
2023/06/22 06:37:42;;;;;;;10.80;6.18;;;17.80;99.90;;;;;;5051391;28;20108;-72
2023/06/22 06:40:11;;;;;;;6.18;5.57;;;17.90;99.90;;;;;;5051925;28;20040;-72
2023/06/22 06:42:40;;;;;;;7.93;5.22;;;18.10;99.90;;;;;;5050136;28;20029;-72
2023/06/22 06:45:07;;;;;;;9.90;6.43;;;18.20;99.90;;;;;;5051555;28;20354;-72
2023/06/22 06:47:32;;;;;;;7.82;6.00;;;18.30;99.90;;;;;;5050007;28;20053;-72
2023/06/22 06:49:58;;;;;;;9.50;6.13;;;18.50;99.90;;;;;;5051494;28;20484;-72
2023/06/22 06:52:24;;;;;;;7.93;5.82;;;18.60;99.90;;;;;;5051748;28;20033;-72
2023/06/22 06:54:51;;;;;;;9.15;6.43;;;18.70;99.90;;;;;;5049700;28;20040;-72
2023/06/22 06:57:20;;;;;;;8.93;7.78;;;18.80;99.90;;;;;;5051675;28;20033;-72
2023/06/22 06:59:46;;;;;;;15.45;7.65;;;18.90;99.90;;;;;;5051364;28;20622;-72
2023/06/22 07:02:12;;;;;;;8.45;6.15;;;19.00;99.90;;;;;;5051878;28;20025;-72
2023/06/22 07:04:37;;;;;;;10.75;7.20;;;19.00;99.90;;;;;;5051254;28;20370;-71
2023/06/22 07:07:03;;;;;;;13.75;7.38;;;18.80;99.90;;;;;;5051486;28;20029;-72
2023/06/22 07:09:29;;;;;;;9.20;6.88;;;18.90;99.90;;;;;;5050861;28;20017;-73
2023/06/22 07:11:55;;;;;;;11.20;7.88;;;18.70;99.90;;;;;;5051452;28;20048;-73
2023/06/22 07:14:20;;;;;;;7.60;6.72;;;18.80;99.90;;;;;;5052163;28;20123;-72
2023/06/22 07:16:46;;;;;;;9.75;8.10;;;18.80;99.90;;;;;;5049806;28;20600;-72
2023/06/22 07:19:15;;;;;;;11.32;8.10;;;19.00;99.90;;;;;;5051675;28;20124;-73
2023/06/22 07:21:40;;;;;;;14.88;7.18;;;19.00;99.90;;;;;;5051176;28;20033;-73
2023/06/22 07:24:07;;;;;;;7.53;6.28;;;18.90;99.90;;;;;;5050182;28;20032;-72
2023/06/22 07:26:33;;;;;;;13.30;7.70;;;19.10;99.90;;;;;;5050708;28;20120;-72
2023/06/22 07:28:59;;;;;;;7.63;5.90;;;19.30;99.90;;;;;;5050952;28;20053;-72
2023/06/22 07:31:25;;;;;;;12.25;7.25;;;19.50;99.90;;;;;;5051456;28;20028;-73
2023/06/22 07:33:52;;;;;;;10.02;6.18;;;19.60;99.90;;;;;;5050671;28;20037;-73
2023/06/22 07:36:18;;;;;;;7.78;6.50;;;19.80;99.90;;;;;;5049600;28;20426;-72
2023/06/22 07:38:44;;;;;;;7.05;6.45;;;19.90;99.90;;;;;;5050084;28;20081;-73
2023/06/22 07:41:10;;;;;;;10.45;6.30;;;19.80;99.90;;;;;;5050750;28;20109;-72
2023/06/22 07:43:36;;;;;;;11.00;6.82;;;19.90;99.90;;;;;;5048743;28;20410;-73
2023/06/22 07:46:05;;;;;;;10.23;6.72;;;20.00;99.90;;;;;;5050683;28;20051;-72
2023/06/22 07:48:31;;;;;;;10.68;5.82;;;19.90;99.90;;;;;;5050293;28;20100;-73
2023/06/22 07:50:57;;;;;;;6.90;5.10;;;20.00;99.90;;;;;;5050773;28;20502;-72
2023/06/22 07:53:23;;;;;;;8.63;5.78;;;20.10;99.90;;;;;;5050589;28;20419;-72
2023/06/22 07:55:49;;;;;;;8.15;5.10;;;20.10;99.90;;;;;;5050087;28;20071;-73
2023/06/22 07:58:15;;;;;;;9.20;5.47;;;20.20;99.90;;;;;;5050660;28;20032;-72
2023/06/22 08:00:41;;;;;;;7.57;5.15;;;20.30;99.90;;;;;;5050136;28;20021;-73
2023/06/22 08:03:07;;;;;;;8.23;4.85;;;20.30;99.90;;;;;;5050594;28;20031;-72
2023/06/22 08:05:33;;;;;;;6.95;4.95;;;20.40;99.90;;;;;;5048855;28;20059;-73
2023/06/22 08:07:58;;;;;;;6.63;6.00;;;20.50;99.90;;;;;;5050404;28;20037;-73
2023/06/22 08:10:25;;;;;;;7.15;5.65;;;20.50;99.90;;;;;;5050283;28;20048;-72
2023/06/22 08:12:52;;;;;;;8.98;5.45;;;20.40;99.90;;;;;;5049651;28;20087;-72
2023/06/22 08:15:18;;;;;;;8.07;5.05;;;20.40;99.90;;;;;;5050555;28;20112;-72
2023/06/22 08:17:45;;;;;;;5.38;4.05;;;20.40;99.90;;;;;;5049086;28;20057;-73
2023/06/22 08:20:14;;;;;;;9.13;4.65;;;20.40;99.90;;;;;;5050356;28;20021;-73
2023/06/22 08:22:41;;;;;;;6.65;4.88;;;20.50;99.90;;;;;;5049084;28;20040;-73
2023/06/22 08:25:08;;;;;;;8.32;5.28;;;20.50;99.90;;;;;;5049432;28;20463;-73
2023/06/22 08:27:35;;;;;;;6.65;5.00;;;20.60;99.90;;;;;;5049238;28;20091;-73
2023/06/22 08:30:01;;;;;;;6.47;4.80;;;20.70;99.90;;;;;;5049984;28;20033;-73
2023/06/22 08:32:29;;;;;;;5.75;4.63;;;20.70;99.90;;;;;;5050100;28;20367;-72
2023/06/22 08:34:57;;;;;;;9.27;4.47;;;20.80;99.90;;;;;;5049915;28;20091;-73
2023/06/22 08:37:30;;;;;;;8.15;5.03;;;20.70;99.90;;;;;;5050214;28;20358;-73
2023/06/22 08:40:00;;;;;;;6.35;4.75;;;20.90;99.90;;;;;;5049776;28;20025;-72
2023/06/22 08:42:26;;;;;;;7.25;4.30;;;20.90;99.90;;;;;;5050151;28;20048;-73
2023/06/22 08:44:53;;;;;;;6.07;3.58;;;21.00;99.90;;;;;;5049666;28;20572;-73
2023/06/22 08:47:20;;;;;;;6.20;4.25;;;21.00;99.90;;;;;;5050246;28;20080;-73
2023/06/22 08:49:47;;;;;;;8.05;4.40;;;21.10;99.90;;;;;;5049480;28;20033;-72
2023/06/22 08:52:13;;;;;;;7.13;3.72;;;21.20;99.90;;;;;;5049851;28;20041;-72
2023/06/22 08:54:38;;;;;;;6.70;3.92;;;21.20;99.90;;;;;;5048975;28;20043;-72
2023/06/22 08:57:04;;;;;;;5.35;4.15;;;21.20;99.90;;;;;;5050050;28;20029;-73
2023/06/22 08:59:31;;;;;;;7.28;4.32;;;21.20;99.90;;;;;;5050154;28;20051;-72
2023/06/22 09:01:56;;;;;;;5.25;4.07;;;21.20;99.90;;;;;;5048495;28;20029;-72
2023/06/22 09:04:22;;;;;;;5.25;3.80;;;21.10;99.90;;;;;;5049231;28;20035;-72
2023/06/22 09:06:49;;;;;;;6.30;3.90;;;21.00;99.90;;;;;;5049896;28;20051;-72
2023/06/22 09:09:16;;;;;;;5.20;3.55;;;21.00;99.90;;;;;;5050300;28;20025;-72
2023/06/22 09:11:42;;;;;;;6.07;4.10;;;21.10;99.90;;;;;;5049912;28;20104;-73
2023/06/22 09:14:09;;;;;;;4.65;3.50;;;21.20;99.90;;;;;;5050384;28;20136;-73
2023/06/22 09:16:34;;;;;;;4.85;3.38;;;21.30;99.90;;;;;;5050238;28;20446;-74
2023/06/22 09:19:00;;;;;;;4.10;3.20;;;21.40;99.90;;;;;;5051714;28;20053;-73
2023/06/22 09:21:26;;;;;;;4.95;3.85;;;21.50;99.90;;;;;;5053381;28;20107;-73
2023/06/22 09:23:52;;;;;;;3.80;3.00;;;21.60;99.90;;;;;;5053013;28;20139;-73
2023/06/22 09:26:18;;;;;;;4.32;3.15;;;21.60;99.90;;;;;;5053253;28;20027;-72
2023/06/22 09:28:44;;;;;;;5.55;3.30;;;21.70;99.90;;;;;;5052585;28;20147;-73
2023/06/22 09:31:10;;;;;;;8.10;3.72;;;21.70;99.90;;;;;;5053034;28;20474;-72
2023/06/22 09:33:37;;;;;;;4.95;3.83;;;21.70;99.90;;;;;;5051244;28;20037;-74
2023/06/22 09:36:07;;;;;;;7.25;4.95;;;21.70;99.90;;;;;;5053145;28;20497;-73
2023/06/22 09:38:35;;;;;;;8.68;3.70;;;21.60;99.90;;;;;;5053234;28;20029;-72
2023/06/22 09:41:00;;;;;;;6.88;4.45;;;21.50;99.90;;;;;;5053012;28;20101;-72
2023/06/22 09:43:27;;;;;;;7.75;4.15;;;21.60;99.90;;;;;;5053262;28;20029;-73
2023/06/22 09:45:53;;;;;;;4.57;3.75;;;21.50;99.90;;;;;;5052708;28;20085;-73
2023/06/22 09:48:19;;;;;;;4.80;3.78;;;21.60;99.90;;;;;;5053255;28;20162;-72
2023/06/22 09:50:45;;;;;;;8.75;4.38;;;21.70;99.90;;;;;;5052183;28;20356;-73
2023/06/22 09:53:11;;;;;;;8.05;3.83;;;21.70;99.90;;;;;;5052859;28;20060;-72
2023/06/22 09:55:36;;;;;;;5.10;3.83;;;21.90;99.90;;;;;;5052817;28;20095;-74
2023/06/22 09:58:02;;;;;;;5.35;3.33;;;21.90;99.90;;;;;;5052553;28;20351;-74
2023/06/22 10:00:28;;;;;;;5.00;3.70;;;22.00;99.90;;;;;;5051908;28;20032;-73
2023/06/22 10:02:55;;;;;;;10.27;4.07;;;22.20;99.90;;;;;;5051615;28;20443;-74
2023/06/22 10:05:21;;;;;;;7.30;3.92;;;22.00;99.90;;;;;;5050645;28;20041;-72
2023/06/22 10:07:47;;;;;;;8.48;4.63;;;22.00;99.90;;;;;;5051374;28;20040;-73
2023/06/22 10:10:13;;;;;;;7.50;4.15;;;21.80;99.90;;;;;;5051570;28;20021;-73
2023/06/22 10:12:54;;;;;;;6.38;4.47;;;21.80;99.90;;;;;;5051425;28;20028;-75
2023/06/22 10:15:21;;;;;;;6.50;4.03;;;21.90;99.90;;;;;;5052335;28;20060;-73
2023/06/22 10:17:47;;;;;;;7.05;3.70;;;21.80;99.90;;;;;;5051453;28;20021;-74
2023/06/22 10:20:13;;;;;;;4.05;2.90;;;21.80;99.90;;;;;;5051973;28;20029;-73
2023/06/22 10:22:44;;;;;;;6.68;3.65;;;21.90;99.90;;;;;;5050360;28;20124;-75
2023/06/22 10:25:11;;;;;;;4.43;3.70;;;22.00;99.90;;;;;;5052294;28;20033;-72
2023/06/22 10:27:39;;;;;;;7.20;3.88;;;22.00;99.90;;;;;;5051457;28;20033;-72
2023/06/22 10:30:06;;;;;;;6.82;3.47;;;22.00;99.90;;;;;;5049846;28;20394;-72
2023/06/22 10:32:32;;;;;;;8.13;3.67;;;22.00;99.90;;;;;;5051731;28;20104;-72
2023/06/22 10:34:58;;;;;;;7.97;3.33;;;21.90;99.90;;;;;;5051073;28;20082;-72
2023/06/22 10:37:24;;;;;;;6.10;3.22;;;21.70;99.90;;;;;;5051691;28;20112;-72
2023/06/22 10:39:50;;;;;;;6.63;3.25;;;21.90;99.90;;;;;;5051212;28;20055;-73
2023/06/22 10:42:16;;;;;;;6.15;3.20;;;21.70;99.90;;;;;;5051488;28;20025;-72
2023/06/22 10:44:43;;;;;;;8.23;3.58;;;22.00;99.90;;;;;;5051048;28;20037;-74
2023/06/22 10:47:11;;;;;;;5.35;3.35;;;21.90;99.90;;;;;;5051783;28;20025;-72
2023/06/22 10:49:38;;;;;;;3.80;3.25;;;22.10;99.90;;;;;;5052008;28;20060;-72
2023/06/22 10:52:05;;;;;;;3.30;3.00;;;22.30;99.90;;;;;;5051241;28;20418;-72
2023/06/22 10:54:32;;;;;;;5.72;3.47;;;22.30;99.90;;;;;;5051669;28;20033;-72
2023/06/22 10:56:58;;;;;;;8.88;3.47;;;22.30;99.90;;;;;;5050891;28;20444;-72
2023/06/22 10:59:25;;;;;;;4.50;3.15;;;22.20;99.90;;;;;;5051854;28;20025;-72
2023/06/22 11:01:51;;;;;;;8.35;3.42;;;22.20;99.90;;;;;;5050414;28;20105;-72
2023/06/22 11:04:17;;;;;;;5.47;3.60;;;22.10;99.90;;;;;;5051109;28;20032;-72
2023/06/22 11:06:43;;;;;;;8.50;3.20;;;22.00;99.90;;;;;;5050697;28;20162;-74
2023/06/22 11:09:09;;;;;;;5.20;3.58;;;21.90;99.90;;;;;;5049739;28;20051;-72
2023/06/22 11:11:35;;;;;;;5.20;3.20;;;21.80;99.90;;;;;;5051308;28;20096;-73
2023/06/22 11:14:01;;;;;;;6.50;3.47;;;21.80;99.90;;;;;;5050431;28;20037;-73
2023/06/22 11:16:27;;;;;;;7.28;3.47;;;21.90;99.90;;;;;;5051442;28;20145;-72
2023/06/22 11:18:52;;;;;;;5.72;3.17;;;21.90;99.90;;;;;;5050622;28;20024;-73
2023/06/22 11:21:18;;;;;;;5.07;3.15;;;22.00;99.90;;;;;;5051114;28;20025;-72
2023/06/22 11:23:45;;;;;;;4.47;2.92;;;21.80;99.90;;;;;;5050120;28;20063;-74
2023/06/22 11:26:10;;;;;;;5.15;3.10;;;21.90;99.90;;;;;;5050270;28;20060;-72
2023/06/22 11:28:36;;;;;;;7.22;4.25;;;21.90;99.90;;;;;;5050581;28;20080;-72
2023/06/22 11:31:02;;;;;;;5.05;3.30;;;21.70;99.90;;;;;;5049784;28;20124;-72
2023/06/22 11:33:29;;;;;;;7.95;3.88;;;21.50;99.90;;;;;;5050541;28;20129;-73
2023/06/22 11:35:56;;;;;;;5.68;3.60;;;21.50;99.90;;;;;;5050218;28;20449;-72
2023/06/22 11:38:22;;;;;;;5.75;3.38;;;21.30;99.90;;;;;;5050256;28;20075;-72
2023/06/22 11:40:48;;;;;;;8.10;3.42;;;21.30;99.90;;;;;;5048740;28;20057;-72
2023/06/22 11:43:14;;;;;;;5.93;3.65;;;21.40;99.90;;;;;;5050560;28;20029;-72
2023/06/22 11:45:40;;;;;;;6.38;3.25;;;21.40;99.90;;;;;;5050450;28;20113;-71
2023/06/22 11:48:06;;;;;;;5.57;3.30;;;21.50;99.90;;;;;;5050146;28;20103;-72
2023/06/22 11:50:35;;;;;;;8.05;3.30;;;21.50;99.90;;;;;;5050481;28;20056;-73
2023/06/22 11:53:02;;;;;;;5.88;3.60;;;21.50;99.90;;;;;;5049525;28;20033;-73
2023/06/22 11:55:28;;;;;;;4.68;3.50;;;21.50;99.90;;;;;;5050217;28;20423;-73
2023/06/22 11:57:58;;;;;;;7.18;3.10;;;21.60;99.90;;;;;;5048255;28;20029;-73
2023/06/22 12:00:24;;;;;;;5.75;3.78;;;21.50;99.90;;;;;;5050023;28;20036;-73
2023/06/22 12:02:52;;;;;;;4.80;4.05;;;21.60;99.90;;;;;;5049671;28;20029;-73
2023/06/22 12:05:21;;;;;;;6.55;3.72;;;21.50;99.90;;;;;;5050315;28;20028;-73
2023/06/22 12:07:46;;;;;;;6.60;3.60;;;21.60;99.90;;;;;;5050037;28;20386;-74
2023/06/22 12:10:12;;;;;;;5.32;3.35;;;21.60;99.90;;;;;;5050469;28;20021;-72
2023/06/22 12:12:38;;;;;;;4.00;3.55;;;21.60;99.90;;;;;;5049900;28;20021;-73
2023/06/22 12:15:05;;;;;;;6.20;3.78;;;21.50;99.90;;;;;;5049852;28;20025;-73
2023/06/22 12:17:31;;;;;;;6.05;3.45;;;21.50;99.90;;;;;;5049952;28;20094;-72
2023/06/22 12:19:57;;;;;;;6.13;3.58;;;21.50;99.90;;;;;;5049553;28;20069;-73
2023/06/22 12:22:22;;;;;;;12.93;3.58;;;21.70;99.90;;;;;;5050240;28;20033;-72
2023/06/22 12:24:48;;;;;;;5.68;3.13;;;21.70;99.90;;;;;;5049654;28;20025;-74
2023/06/22 12:27:17;;;;;;;7.95;3.80;;;21.50;99.90;;;;;;5050001;28;20051;-73
2023/06/22 12:29:45;;;;;;;6.05;3.47;;;21.40;99.90;;;;;;5049823;28;20108;-72
2023/06/22 12:32:12;;;;;;;6.00;3.33;;;21.10;99.90;;;;;;5049049;28;20029;-73
2023/06/22 12:34:39;;;;;;;9.77;3.53;;;21.20;99.90;;;;;;5048259;28;20032;-72
2023/06/22 12:37:05;;;;;;;4.57;3.33;;;21.20;99.90;;;;;;5048995;28;20037;-72
2023/06/22 12:39:32;;;;;;;5.40;3.67;;;21.10;99.90;;;;;;5049619;28;20103;-72
2023/06/22 12:41:57;;;;;;;4.65;3.70;;;21.10;99.90;;;;;;5049172;28;20023;-72
2023/06/22 12:44:23;;;;;;;5.85;3.83;;;20.90;99.90;;;;;;5049630;28;20078;-72